Bochem Mumbai — VRHJ8 — position and weather

sailwx.info

Track history (hours):
 
Tides and Currents Weather Stations Pressure Air Temp Water Temp Dewpoint Dewpoint Depression Visibility Wind Speed Wind Dir Waves Ship Positions

Bochem Mumbai

Last reported at 2017-Nov-10 14:12 UTC. Time now 2017-Nov-20 21:33 UTC.
Position N 19°27' W 018°11'.
Warning: this ship's position is 10 days out of date.

Length 171 m; draft 7.1 m.

Type: Tanker. MMSI: 477932400.

Date/timePositionNaut miles runAvg speedWind from/ knotsBaromVisibWave heightAir tempDewpointWater temp
2017-Nov-10 14:12N 19°27' W 018°11'1712.9
2017-Nov-10 12:53N 19°44' W 018°10'1113.6
2017-Nov-10 12:05N 19°54' W 018°10'113.7
2017-Nov-10 12:00N 19°56' W 018°10'1513.4
2017-Nov-10 10:54N 20°10' W 018°09'  
2017-Nov-04 00:57N 49°51' W 003°27'1114.9
2017-Nov-04 00:15N 49°56' W 003°12'415.0
2017-Nov-03 23:59N 49°58' W 003°06'715.0
2017-Nov-03 23:30N 49°60' W 002°56'714.7
2017-Nov-03 23:00N 50°02' W 002°45'714.1
2017-Nov-03 22:30N 50°03' W 002°34'713.2
2017-Nov-03 22:00N 50°05' W 002°24'712.3
2017-Nov-03 21:28N 50°07' W 002°14'511.3
2017-Nov-03 21:00N 50°08' W 002°06'510.5
2017-Nov-03 20:30N 50°10' W 001°58'5 9.9
2017-Nov-03 20:00N 50°11' W 001°51'5 9.5
2017-Nov-03 19:30N 50°12' W 001°44'5 9.5
2017-Nov-03 19:00N 50°13' W 001°37'5 9.7
2017-Nov-03 18:30N 50°15' W 001°29'510.1
2017-Nov-03 18:00N 50°16' W 001°22'610.8
2017-Nov-03 17:27N 50°18' W 001°13'512.0
2017-Nov-03 17:00N 50°19' W 001°05'713.3
2017-Nov-03 16:30N 50°21' W 000°54'714.3
2017-Nov-03 16:00N 50°23' W 000°44'714.7
2017-Nov-03 15:30N 50°25' W 000°33'714.9
2017-Nov-03 15:00N 50°27' W 000°21'714.8
2017-Nov-03 14:30N 50°29' W 000°10'714.7
2017-Nov-03 14:00N 50°31' E 000°01'814.5
2017-Nov-03 13:26N 50°33' E 000°14'614.4
2017-Nov-03 13:00N 50°35' E 000°23'714.0
2017-Nov-03 12:30N 50°37' E 000°34'713.3
2017-Nov-03 12:00N 50°41' E 000°42'612.9
2017-Nov-03 11:30N 50°43' E 000°51'612.3
2017-Nov-03 11:00N 50°47' E 000°59'611.8
2017-Nov-03 10:30N 50°50' E 001°07'911.5
2017-Nov-03 09:45N 50°55' E 001°18'311.6
2017-Nov-03 09:29N 50°57' E 001°22'612.1
2017-Nov-03 09:00N 51°02' E 001°28'713.4
2017-Nov-03 08:30N 51°06' E 001°35'715.0
2017-Nov-03 08:01N 51°12' E 001°43'816.0
2017-Nov-03 07:31N 51°19' E 001°50'816.2
2017-Nov-03 07:01N 51°26' E 001°57'815.6
2017-Nov-03 06:31N 51°31' E 002°05'815.5
2017-Nov-03 06:01N 51°37' E 002°14'815.1
2017-Nov-03 05:30N 51°43' E 002°22'3512.8
2017-Nov-03 02:48N 52°03' E 003°08'1412.8
2017-Nov-03 01:42N 52°03' E 003°31'312.6
2017-Nov-03 01:30N 52°03' E 003°35'612.4
2017-Nov-03 01:00N 52°03' E 003°45'611.8
2017-Nov-03 00:30N 52°03' E 003°54'3 5.8
2017-Nov-03 00:00N 52°02' E 003°58'510.9
2017-Nov-02 23:30N 51°58' E 004°05'2 4.1
2017-Nov-02 23:00N 51°58' E 004°02'0 0.0
2017-Nov-02 22:30N 51°58' E 004°02'0 0.0
2017-Nov-02 22:00N 51°58' E 004°02'0 0.0
2017-Nov-02 21:29N 51°58' E 004°02'0 0.0
2017-Nov-02 20:59N 51°58' E 004°02'0 0.0
2017-Nov-02 20:29N 51°58' E 004°02'0 0.0
2017-Nov-02 19:59N 51°58' E 004°02'0 0.0
2017-Nov-02 19:29N 51°58' E 004°02'0 0.0
2017-Nov-02 18:59N 51°58' E 004°02'0 0.0
2017-Nov-02 18:29N 51°58' E 004°02'0 0.0
2017-Nov-02 17:59N 51°58' E 004°02'0 0.0
2017-Nov-02 17:26N 51°58' E 004°02'0 0.0
2017-Nov-02 16:59N 51°58' E 004°02'0 0.0
2017-Nov-02 16:29N 51°58' E 004°02'0 0.0
2017-Nov-02 15:56N 51°58' E 004°02'0 0.0
2017-Nov-02 15:29N 51°58' E 004°02'0 0.0
2017-Nov-02 14:59N 51°58' E 004°02'0 0.0
2017-Nov-02 14:29N 51°58' E 004°02'0 0.0
2017-Nov-02 13:59N 51°58' E 004°02'0 0.0
2017-Nov-02 13:29N 51°58' E 004°02'0 0.0
2017-Nov-02 12:59N 51°58' E 004°02'0 0.0
2017-Nov-02 12:29N 51°58' E 004°02'0 0.0
2017-Nov-02 11:59N 51°58' E 004°02'0 0.0
2017-Nov-02 11:17N 51°58' E 004°02'0 0.0
2017-Nov-02 10:56N 51°58' E 004°02'0 0.0
2017-Nov-02 10:26N 51°58' E 004°02'0 0.0
2017-Nov-02 09:59N 51°58' E 004°02'0 0.0
2017-Nov-02 09:29N 51°58' E 004°02'0 0.0
2017-Nov-02 08:59N 51°58' E 004°02'0 0.0
2017-Nov-02 08:29N 51°58' E 004°02'0 0.0
2017-Nov-02 07:59N 51°58' E 004°02'0 0.0
2017-Nov-02 07:29N 51°58' E 004°02'0 0.0
2017-Nov-02 06:59N 51°58' E 004°02'0 0.0
2017-Nov-02 06:29N 51°58' E 004°02'0 0.0
2017-Nov-02 05:56N 51°58' E 004°02'0 0.0
2017-Nov-02 05:29N 51°58' E 004°02'0 0.0
2017-Nov-02 04:59N 51°58' E 004°02'0 0.0
2017-Nov-02 04:26N 51°58' E 004°02'0 0.0
2017-Nov-02 03:59N 51°58' E 004°02'0 0.0
2017-Nov-02 03:29N 51°58' E 004°02'0 0.0
2017-Nov-02 02:59N 51°58' E 004°02'0 0.0
2017-Nov-02 02:29N 51°58' E 004°02'0 0.0
2017-Nov-02 01:59N 51°58' E 004°02'0 0.0
2017-Nov-02 01:29N 51°58' E 004°02'0 0.0
2017-Nov-02 00:56N 51°58' E 004°02'0 0.0
2017-Nov-02 00:23N 51°58' E 004°02'0 0.0
2017-Nov-01 23:53N 51°58' E 004°02'0 0.0
2017-Nov-01 23:29N 51°58' E 004°02'0 0.0
2017-Nov-01 22:59N 51°58' E 004°02'0 0.0
2017-Nov-01 22:29N 51°58' E 004°02'0 0.0
2017-Nov-01 21:59N 51°58' E 004°02'0 0.0
2017-Nov-01 21:23N 51°58' E 004°02'0 0.0
2017-Nov-01 20:59N 51°58' E 004°02'0 0.0
2017-Nov-01 20:26N 51°58' E 004°02'0 0.0
2017-Nov-01 19:59N 51°58' E 004°02'0 0.0
2017-Nov-01 19:26N 51°58' E 004°02'0 0.0
2017-Nov-01 18:59N 51°58' E 004°02'0 0.0
2017-Nov-01 18:29N 51°58' E 004°02'10 0.6
2017-Nov-01 01:58N 51°53' E 004°17'0 0.0
2017-Nov-01 01:28N 51°53' E 004°17'0 0.0
2017-Nov-01 00:58N 51°53' E 004°17'0 0.0
2017-Nov-01 00:31N 51°53' E 004°17'0 0.0
2017-Nov-01 00:00N 51°53' E 004°17'0 0.0
2017-Oct-31 23:31N 51°53' E 004°17'0 0.0
2017-Oct-31 23:01N 51°53' E 004°17'0 0.0
2017-Oct-31 22:28N 51°53' E 004°17'0 0.0
2017-Oct-31 22:01N 51°53' E 004°17'0 0.0
2017-Oct-31 21:28N 51°53' E 004°17'0 0.0
2017-Oct-31 21:01N 51°53' E 004°17'0 0.0
2017-Oct-31 20:31N 51°53' E 004°17'0 0.0
2017-Oct-31 20:01N 51°53' E 004°17'0 0.0
2017-Oct-31 19:27N 51°53' E 004°17'0 0.0
2017-Oct-31 19:01N 51°53' E 004°17'0 0.0
2017-Oct-31 18:28N 51°53' E 004°17'0 0.0
2017-Oct-31 18:01N 51°53' E 004°17'0 0.0
2017-Oct-31 17:30N 51°53' E 004°17'0 0.0
2017-Oct-31 17:00N 51°53' E 004°17'0 0.0
2017-Oct-31 16:31N 51°53' E 004°17'0 0.0
2017-Oct-31 15:58N 51°53' E 004°17'0 0.0
2017-Oct-31 15:31N 51°53' E 004°17'0 0.0
2017-Oct-31 15:01N 51°53' E 004°17'0 0.0
2017-Oct-31 14:31N 51°53' E 004°17'  
Track history (hours):
 
Tides and Currents Weather Stations Pressure Air Temp Water Temp Dewpoint Dewpoint Depression Visibility Wind Speed Wind Dir Waves Ship Positions

Bochem Mumbai

Last reported at 2017-Nov-10 14:12 UTC. Time now 2017-Nov-20 21:33 UTC.
Position N 19°27' W 018°11'.
Warning: this ship's position is 10 days out of date.

Length 171 m; draft 7.1 m.

Type: Tanker. MMSI: 477932400.

Date/timePositionNaut miles runAvg speedWind from/ knotsBaromVisibWave heightAir tempDewpointWater temp
2017-Nov-10 14:12N 19°27' W 018°11'1712.9
2017-Nov-10 12:53N 19°44' W 018°10'1113.6
2017-Nov-10 12:05N 19°54' W 018°10'113.7
2017-Nov-10 12:00N 19°56' W 018°10'1513.4
2017-Nov-10 10:54N 20°10' W 018°09'  
2017-Nov-04 00:57N 49°51' W 003°27'1114.9
2017-Nov-04 00:15N 49°56' W 003°12'415.0
2017-Nov-03 23:59N 49°58' W 003°06'715.0
2017-Nov-03 23:30N 49°60' W 002°56'714.7
2017-Nov-03 23:00N 50°02' W 002°45'714.1
2017-Nov-03 22:30N 50°03' W 002°34'713.2
2017-Nov-03 22:00N 50°05' W 002°24'712.3
2017-Nov-03 21:28N 50°07' W 002°14'511.3
2017-Nov-03 21:00N 50°08' W 002°06'510.5
2017-Nov-03 20:30N 50°10' W 001°58'5 9.9
2017-Nov-03 20:00N 50°11' W 001°51'5 9.5
2017-Nov-03 19:30N 50°12' W 001°44'5 9.5
2017-Nov-03 19:00N 50°13' W 001°37'5 9.7
2017-Nov-03 18:30N 50°15' W 001°29'510.1
2017-Nov-03 18:00N 50°16' W 001°22'610.8
2017-Nov-03 17:27N 50°18' W 001°13'512.0
2017-Nov-03 17:00N 50°19' W 001°05'713.3
2017-Nov-03 16:30N 50°21' W 000°54'714.3
2017-Nov-03 16:00N 50°23' W 000°44'714.7
2017-Nov-03 15:30N 50°25' W 000°33'714.9
2017-Nov-03 15:00N 50°27' W 000°21'714.8
2017-Nov-03 14:30N 50°29' W 000°10'714.7
2017-Nov-03 14:00N 50°31' E 000°01'814.5
2017-Nov-03 13:26N 50°33' E 000°14'614.4
2017-Nov-03 13:00N 50°35' E 000°23'714.0
2017-Nov-03 12:30N 50°37' E 000°34'713.3
2017-Nov-03 12:00N 50°41' E 000°42'612.9
2017-Nov-03 11:30N 50°43' E 000°51'612.3
2017-Nov-03 11:00N 50°47' E 000°59'611.8
2017-Nov-03 10:30N 50°50' E 001°07'911.5
2017-Nov-03 09:45N 50°55' E 001°18'311.6
2017-Nov-03 09:29N 50°57' E 001°22'612.1
2017-Nov-03 09:00N 51°02' E 001°28'713.4
2017-Nov-03 08:30N 51°06' E 001°35'715.0
2017-Nov-03 08:01N 51°12' E 001°43'816.0
2017-Nov-03 07:31N 51°19' E 001°50'816.2
2017-Nov-03 07:01N 51°26' E 001°57'815.6
2017-Nov-03 06:31N 51°31' E 002°05'815.5
2017-Nov-03 06:01N 51°37' E 002°14'815.1
2017-Nov-03 05:30N 51°43' E 002°22'3512.8
2017-Nov-03 02:48N 52°03' E 003°08'1412.8
2017-Nov-03 01:42N 52°03' E 003°31'312.6
2017-Nov-03 01:30N 52°03' E 003°35'612.4
2017-Nov-03 01:00N 52°03' E 003°45'611.8
2017-Nov-03 00:30N 52°03' E 003°54'3 5.8
2017-Nov-03 00:00N 52°02' E 003°58'510.9
2017-Nov-02 23:30N 51°58' E 004°05'2 4.1
2017-Nov-02 23:00N 51°58' E 004°02'0 0.0
2017-Nov-02 22:30N 51°58' E 004°02'0 0.0
2017-Nov-02 22:00N 51°58' E 004°02'0 0.0
2017-Nov-02 21:29N 51°58' E 004°02'0 0.0
2017-Nov-02 20:59N 51°58' E 004°02'0 0.0
2017-Nov-02 20:29N 51°58' E 004°02'0 0.0
2017-Nov-02 19:59N 51°58' E 004°02'0 0.0
2017-Nov-02 19:29N 51°58' E 004°02'0 0.0
2017-Nov-02 18:59N 51°58' E 004°02'0 0.0
2017-Nov-02 18:29N 51°58' E 004°02'0 0.0
2017-Nov-02 17:59N 51°58' E 004°02'0 0.0
2017-Nov-02 17:26N 51°58' E 004°02'0 0.0
2017-Nov-02 16:59N 51°58' E 004°02'0 0.0
2017-Nov-02 16:29N 51°58' E 004°02'0 0.0
2017-Nov-02 15:56N 51°58' E 004°02'0 0.0
2017-Nov-02 15:29N 51°58' E 004°02'0 0.0
2017-Nov-02 14:59N 51°58' E 004°02'0 0.0
2017-Nov-02 14:29N 51°58' E 004°02'0 0.0
2017-Nov-02 13:59N 51°58' E 004°02'0 0.0
2017-Nov-02 13:29N 51°58' E 004°02'0 0.0
2017-Nov-02 12:59N 51°58' E 004°02'0 0.0
2017-Nov-02 12:29N 51°58' E 004°02'0 0.0
2017-Nov-02 11:59N 51°58' E 004°02'0 0.0
2017-Nov-02 11:17N 51°58' E 004°02'0 0.0
2017-Nov-02 10:56N 51°58' E 004°02'0 0.0
2017-Nov-02 10:26N 51°58' E 004°02'0 0.0
2017-Nov-02 09:59N 51°58' E 004°02'0 0.0
2017-Nov-02 09:29N 51°58' E 004°02'0 0.0
2017-Nov-02 08:59N 51°58' E 004°02'0 0.0
2017-Nov-02 08:29N 51°58' E 004°02'0 0.0
2017-Nov-02 07:59N 51°58' E 004°02'0 0.0
2017-Nov-02 07:29N 51°58' E 004°02'0 0.0
2017-Nov-02 06:59N 51°58' E 004°02'0 0.0
2017-Nov-02 06:29N 51°58' E 004°02'0 0.0
2017-Nov-02 05:56N 51°58' E 004°02'0 0.0
2017-Nov-02 05:29N 51°58' E 004°02'0 0.0
2017-Nov-02 04:59N 51°58' E 004°02'0 0.0
2017-Nov-02 04:26N 51°58' E 004°02'0 0.0
2017-Nov-02 03:59N 51°58' E 004°02'0 0.0
2017-Nov-02 03:29N 51°58' E 004°02'0 0.0
2017-Nov-02 02:59N 51°58' E 004°02'0 0.0
2017-Nov-02 02:29N 51°58' E 004°02'0 0.0
2017-Nov-02 01:59N 51°58' E 004°02'0 0.0
2017-Nov-02 01:29N 51°58' E 004°02'0 0.0
2017-Nov-02 00:56N 51°58' E 004°02'0 0.0
2017-Nov-02 00:23N 51°58' E 004°02'0 0.0
2017-Nov-01 23:53N 51°58' E 004°02'0 0.0
2017-Nov-01 23:29N 51°58' E 004°02'0 0.0
2017-Nov-01 22:59N 51°58' E 004°02'0 0.0
2017-Nov-01 22:29N 51°58' E 004°02'0 0.0
2017-Nov-01 21:59N 51°58' E 004°02'0 0.0
2017-Nov-01 21:23N 51°58' E 004°02'0 0.0
2017-Nov-01 20:59N 51°58' E 004°02'0 0.0
2017-Nov-01 20:26N 51°58' E 004°02'0 0.0
2017-Nov-01 19:59N 51°58' E 004°02'0 0.0
2017-Nov-01 19:26N 51°58' E 004°02'0 0.0
2017-Nov-01 18:59N 51°58' E 004°02'0 0.0
2017-Nov-01 18:29N 51°58' E 004°02'10 0.6
2017-Nov-01 01:58N 51°53' E 004°17'0 0.0
2017-Nov-01 01:28N 51°53' E 004°17'0 0.0
2017-Nov-01 00:58N 51°53' E 004°17'0 0.0
2017-Nov-01 00:31N 51°53' E 004°17'0 0.0
2017-Nov-01 00:00N 51°53' E 004°17'0 0.0
2017-Oct-31 23:31N 51°53' E 004°17'0 0.0
2017-Oct-31 23:01N 51°53' E 004°17'0 0.0
2017-Oct-31 22:28N 51°53' E 004°17'0 0.0
2017-Oct-31 22:01N 51°53' E 004°17'0 0.0
2017-Oct-31 21:28N 51°53' E 004°17'0 0.0
2017-Oct-31 21:01N 51°53' E 004°17'0 0.0
2017-Oct-31 20:31N 51°53' E 004°17'0 0.0
2017-Oct-31 20:01N 51°53' E 004°17'0 0.0
2017-Oct-31 19:27N 51°53' E 004°17'0 0.0
2017-Oct-31 19:01N 51°53' E 004°17'0 0.0
2017-Oct-31 18:28N 51°53' E 004°17'0 0.0
2017-Oct-31 18:01N 51°53' E 004°17'0 0.0
2017-Oct-31 17:30N 51°53' E 004°17'0 0.0
2017-Oct-31 17:00N 51°53' E 004°17'0 0.0
2017-Oct-31 16:31N 51°53' E 004°17'0 0.0
2017-Oct-31 15:58N 51°53' E 004°17'0 0.0
2017-Oct-31 15:31N 51°53' E 004°17'0 0.0
2017-Oct-31 15:01N 51°53' E 004°17'0 0.0
2017-Oct-31 14:31N 51°53' E 004°17'  

Dump ship's entire track history